Time;durP1;ratioP1;P1;durP2;ratioP2;P2;SDS_P1;SDS_P2;PMS_P1;PMS_P2;Temp;Humidity;BMP_temperature;BMP_pressure;BME280_temperature;BME280_humidity;BME280_pressure;Samples;Min_cycle;Max_cycle;Signal;HPM_P1;HPM_P2
2022/03/10 00:01:01;;;;;;;23.93;13.73;;;3.00;99.90;;;;;;5149460;28;20550;-51
2022/03/10 00:03:31;;;;;;;23.33;12.90;;;3.10;99.90;;;;;;5152434;28;20460;-52
2022/03/10 00:06:02;;;;;;;20.60;11.93;;;3.00;99.90;;;;;;5157761;28;20205;-51
2022/03/10 00:08:33;;;;;;;27.40;13.50;;;3.10;99.90;;;;;;5160741;28;20238;-49
2022/03/10 00:11:03;;;;;;;23.20;12.53;;;3.10;99.90;;;;;;5153122;28;20428;-49
2022/03/10 00:13:34;;;;;;;22.90;12.03;;;3.10;99.90;;;;;;5160100;28;20177;-49
2022/03/10 00:16:04;;;;;;;27.13;12.57;;;3.10;99.90;;;;;;5150040;28;20205;-49
2022/03/10 00:18:35;;;;;;;26.27;12.93;;;3.10;99.90;;;;;;5156657;28;20194;-50
2022/03/10 00:21:06;;;;;;;25.40;12.87;;;3.10;99.90;;;;;;5157036;28;20181;-50
2022/03/10 00:23:37;;;;;;;25.43;13.30;;;3.10;99.90;;;;;;5158258;28;20485;-50
2022/03/10 00:26:07;;;;;;;21.53;13.10;;;3.10;99.90;;;;;;5155636;28;20202;-50
2022/03/10 00:28:38;;;;;;;21.43;13.10;;;3.10;99.90;;;;;;5162699;28;20582;-50
2022/03/10 00:31:09;;;;;;;20.00;13.03;;;3.10;99.90;;;;;;5153075;28;20189;-48
2022/03/10 00:33:39;;;;;;;21.83;13.67;;;3.10;99.90;;;;;;5145419;28;20186;-50
2022/03/10 00:36:10;;;;;;;32.17;14.03;;;3.10;99.90;;;;;;5223594;28;20465;-50
2022/03/10 00:38:41;;;;;;;26.73;13.30;;;3.00;99.90;;;;;;5159527;28;20583;-49
2022/03/10 00:41:12;;;;;;;25.20;13.20;;;3.10;99.90;;;;;;5158482;28;20238;-49
2022/03/10 00:43:42;;;;;;;22.83;13.30;;;3.00;99.90;;;;;;5158237;28;20544;-50
2022/03/10 00:46:13;;;;;;;30.53;14.23;;;3.00;99.90;;;;;;5151981;28;20546;-50
2022/03/10 00:48:43;;;;;;;31.23;14.73;;;3.00;99.90;;;;;;5142363;28;20177;-51
2022/03/10 00:51:14;;;;;;;21.93;12.70;;;3.00;99.90;;;;;;5151429;28;20212;-50
2022/03/10 00:53:45;;;;;;;30.57;13.20;;;3.00;99.90;;;;;;5154620;28;20193;-50
2022/03/10 00:56:15;;;;;;;30.60;14.93;;;3.00;99.90;;;;;;5156009;28;20534;-51
2022/03/10 00:58:46;;;;;;;24.37;13.80;;;3.00;99.90;;;;;;5157914;28;20186;-50
2022/03/10 01:01:16;;;;;;;21.93;13.63;;;3.00;99.90;;;;;;5154581;28;20178;-49
2022/03/10 01:03:47;;;;;;;30.17;14.77;;;3.00;99.90;;;;;;5148782;28;20202;-50
2022/03/10 01:06:17;;;;;;;26.03;13.30;;;3.00;99.90;;;;;;5157206;28;20285;-51
2022/03/10 01:08:48;;;;;;;26.70;14.53;;;3.00;99.90;;;;;;5148527;28;20211;-50
2022/03/10 01:11:18;;;;;;;20.93;12.23;;;3.00;99.90;;;;;;5152861;28;20200;-49
2022/03/10 01:13:49;;;;;;;28.07;14.40;;;3.00;99.90;;;;;;5157855;28;20192;-50
2022/03/10 01:16:19;;;;;;;26.80;14.30;;;3.00;99.90;;;;;;5148815;28;20542;-49
2022/03/10 01:18:50;;;;;;;39.40;13.97;;;2.90;99.90;;;;;;5155868;28;20189;-50
2022/03/10 01:21:20;;;;;;;30.13;15.70;;;2.90;99.90;;;;;;5151296;28;20197;-49
2022/03/10 01:23:51;;;;;;;33.83;16.67;;;2.90;99.90;;;;;;5159340;28;20690;-50
2022/03/10 01:26:21;;;;;;;25.37;12.97;;;2.90;99.90;;;;;;5162809;28;20250;-49
2022/03/10 01:28:52;;;;;;;27.13;15.23;;;2.80;99.90;;;;;;5158029;28;20185;-49
2022/03/10 01:31:22;;;;;;;27.27;14.90;;;2.70;99.90;;;;;;5161340;28;20227;-50
2022/03/10 01:33:53;;;;;;;34.43;13.30;;;2.70;99.90;;;;;;5170281;28;20193;-51
2022/03/10 01:36:23;;;;;;;31.40;15.20;;;2.70;99.90;;;;;;5153707;28;20223;-50
2022/03/10 01:38:54;;;;;;;34.37;16.10;;;2.60;99.90;;;;;;5168148;28;20185;-51
2022/03/10 01:41:24;;;;;;;21.73;14.00;;;2.60;99.90;;;;;;5153064;28;20197;-52
2022/03/10 01:44:04;;;;;;;27.60;15.40;;;2.60;99.90;;;;;;5155513;28;20227;-50
2022/03/10 01:46:36;;;;;;;32.30;15.13;;;2.60;99.90;;;;;;5158504;28;20200;-50
2022/03/10 01:49:06;;;;;;;33.73;14.67;;;2.50;99.90;;;;;;5168782;28;20471;-50
2022/03/10 01:51:38;;;;;;;29.53;15.57;;;2.40;99.90;;;;;;5151339;28;20434;-50
2022/03/10 01:54:10;;;;;;;25.73;14.37;;;2.40;99.90;;;;;;5163234;28;20239;-50
2022/03/10 01:56:41;;;;;;;32.47;15.27;;;2.40;99.90;;;;;;5152707;28;20456;-51
2022/03/10 01:59:13;;;;;;;28.50;15.80;;;2.40;99.90;;;;;;5159053;28;20441;-50
2022/03/10 02:01:43;;;;;;;31.43;15.90;;;2.40;99.90;;;;;;5147698;28;20834;-49
2022/03/10 02:04:14;;;;;;;31.17;15.23;;;2.40;99.90;;;;;;5146321;28;20455;-49
2022/03/10 02:06:44;;;;;;;29.13;14.00;;;2.30;99.90;;;;;;5141606;28;20197;-49
2022/03/10 02:12:07;;;;;;;27.97;14.63;;;2.30;99.90;;;;;;5161222;28;20207;-50
2022/03/10 02:17:29;;;;;;;31.53;15.30;;;2.30;99.90;;;;;;5156372;28;20798;-51
2022/03/10 02:20:00;;;;;;;29.07;16.00;;;2.30;99.90;;;;;;5160819;28;20441;-51
2022/03/10 02:22:30;;;;;;;29.43;15.47;;;2.20;99.90;;;;;;5157954;28;20185;-50
2022/03/10 02:25:02;;;;;;;29.13;16.37;;;2.20;99.90;;;;;;5162391;28;20285;-50
2022/03/10 02:27:34;;;;;;;35.13;15.00;;;2.20;99.90;;;;;;5164383;28;20225;-50
2022/03/10 02:30:05;;;;;;;26.57;14.67;;;2.20;99.90;;;;;;5153479;28;20440;-50
2022/03/10 02:32:36;;;;;;;36.80;15.90;;;2.10;99.90;;;;;;5154157;28;20425;-49
2022/03/10 02:35:07;;;;;;;30.60;16.20;;;2.10;99.90;;;;;;5155741;28;20990;-51
2022/03/10 02:37:37;;;;;;;31.03;16.73;;;2.00;99.90;;;;;;5160290;28;20263;-50
2022/03/10 02:40:09;;;;;;;28.40;15.70;;;2.00;99.90;;;;;;5159411;28;20431;-49
2022/03/10 02:42:41;;;;;;;29.83;15.57;;;2.00;99.90;;;;;;5148398;28;20184;-50
2022/03/10 02:45:11;;;;;;;32.80;15.33;;;1.90;99.90;;;;;;5155619;28;20469;-49
2022/03/10 02:47:42;;;;;;;28.70;15.43;;;1.90;99.90;;;;;;5151765;28;20827;-49
2022/03/10 02:50:12;;;;;;;28.43;15.77;;;1.90;99.90;;;;;;5156932;28;20197;-48
2022/03/10 02:52:44;;;;;;;31.90;16.20;;;1.90;99.90;;;;;;5151247;28;20182;-50
2022/03/10 02:55:14;;;;;;;25.03;15.50;;;1.90;99.90;;;;;;5170545;28;20648;-50
2022/03/10 02:57:45;;;;;;;30.10;15.07;;;2.00;99.90;;;;;;5151899;28;20557;-50
2022/03/10 03:00:16;;;;;;;41.40;16.77;;;2.00;99.90;;;;;;5157914;28;20193;-51
2022/03/10 03:02:47;;;;;;;32.80;15.80;;;1.90;99.90;;;;;;5150887;28;20191;-51
2022/03/10 03:05:18;;;;;;;32.33;16.50;;;1.90;99.90;;;;;;5154533;28;20491;-50
2022/03/10 03:07:48;;;;;;;37.93;16.40;;;1.90;99.90;;;;;;5155384;28;20197;-49
2022/03/10 03:10:19;;;;;;;32.23;16.87;;;1.90;99.90;;;;;;5159133;28;20313;-50
2022/03/10 03:12:51;;;;;;;49.90;18.20;;;1.90;99.90;;;;;;5160995;28;20182;-49
2022/03/10 03:15:21;;;;;;;37.20;17.50;;;1.90;99.90;;;;;;5147269;28;20190;-50
2022/03/10 03:17:52;;;;;;;36.37;16.47;;;1.90;99.90;;;;;;5147283;28;20488;-49
2022/03/10 03:20:22;;;;;;;38.10;18.27;;;1.90;99.90;;;;;;5152971;28;20207;-50
2022/03/10 03:22:53;;;;;;;31.07;16.53;;;1.90;99.90;;;;;;5156754;28;20193;-50
2022/03/10 03:25:23;;;;;;;36.10;17.50;;;1.90;99.90;;;;;;5157146;28;20213;-51
2022/03/10 03:27:54;;;;;;;47.77;17.63;;;1.90;99.90;;;;;;5140846;28;20567;-50
2022/03/10 03:30:24;;;;;;;33.70;18.70;;;1.90;99.90;;;;;;5152930;28;21012;-49
2022/03/10 03:32:55;;;;;;;30.00;17.20;;;1.90;99.90;;;;;;5159037;28;20177;-50
2022/03/10 03:35:26;;;;;;;38.73;18.07;;;1.90;99.90;;;;;;5157237;28;20268;-51
2022/03/10 03:37:56;;;;;;;32.80;17.27;;;1.90;99.90;;;;;;5162530;28;20221;-49
2022/03/10 03:40:27;;;;;;;32.70;16.67;;;2.00;99.90;;;;;;5149681;28;20202;-50
2022/03/10 03:42:57;;;;;;;33.13;17.20;;;2.00;99.90;;;;;;5156297;28;20192;-48
2022/03/10 03:45:28;;;;;;;31.63;16.87;;;2.00;99.90;;;;;;5163133;28;20309;-49
2022/03/10 03:47:58;;;;;;;29.63;14.80;;;2.00;99.90;;;;;;5159345;28;20189;-49
2022/03/10 03:50:29;;;;;;;36.60;16.80;;;2.00;99.90;;;;;;5152492;28;20264;-50
2022/03/10 03:52:59;;;;;;;33.57;16.30;;;2.00;99.90;;;;;;5158165;28;20260;-49
2022/03/10 03:55:30;;;;;;;33.10;16.67;;;2.00;99.90;;;;;;5161915;28;20181;-50
2022/03/10 03:58:00;;;;;;;28.80;15.10;;;2.00;99.90;;;;;;5156674;28;20201;-50
2022/03/10 04:00:31;;;;;;;32.50;15.93;;;2.00;99.90;;;;;;5149512;28;20577;-49
2022/03/10 04:03:11;;;;;;;37.40;15.50;;;2.00;99.90;;;;;;5156266;28;20197;-50
2022/03/10 04:05:42;;;;;;;36.60;15.20;;;2.00;99.90;;;;;;5151722;28;20195;-48
2022/03/10 04:08:13;;;;;;;27.60;15.17;;;2.00;99.90;;;;;;5159788;28;20469;-50
2022/03/10 04:10:43;;;;;;;33.83;15.80;;;1.90;99.90;;;;;;5151803;28;20186;-50
2022/03/10 04:13:14;;;;;;;32.43;15.53;;;1.90;99.90;;;;;;5149259;28;20244;-49
2022/03/10 04:15:44;;;;;;;32.17;15.70;;;1.90;99.90;;;;;;5152360;28;20188;-49
2022/03/10 04:18:16;;;;;;;38.13;16.10;;;1.90;99.90;;;;;;5150290;28;20189;-51
2022/03/10 04:20:48;;;;;;;34.67;16.57;;;1.90;99.90;;;;;;5144694;28;21006;-50
2022/03/10 04:23:19;;;;;;;31.43;16.70;;;1.90;99.90;;;;;;5152666;28;20486;-50
2022/03/10 04:25:49;;;;;;;40.63;16.63;;;1.90;99.90;;;;;;5152257;28;20433;-49
2022/03/10 04:28:20;;;;;;;34.13;15.33;;;1.80;99.90;;;;;;5145434;28;20174;-50
2022/03/10 04:30:51;;;;;;;31.60;16.30;;;1.80;99.90;;;;;;5154877;28;20200;-51
2022/03/10 04:33:22;;;;;;;29.13;16.60;;;1.80;99.90;;;;;;5151933;28;20192;-49
2022/03/10 04:35:55;;;;;;;28.90;15.70;;;1.80;99.90;;;;;;5152311;28;20187;-49
2022/03/10 04:38:26;;;;;;;34.10;16.23;;;1.80;99.90;;;;;;5146977;28;20431;-50
2022/03/10 04:40:56;;;;;;;33.53;15.70;;;1.80;99.90;;;;;;5149049;28;20436;-51
2022/03/10 04:43:27;;;;;;;56.60;16.63;;;1.80;99.90;;;;;;5166501;28;20185;-50
2022/03/10 04:45:59;;;;;;;27.07;14.43;;;1.80;99.90;;;;;;5155561;28;20187;-50
2022/03/10 04:48:30;;;;;;;39.07;16.60;;;1.80;99.90;;;;;;5151437;28;20177;-50
2022/03/10 04:51:01;;;;;;;37.63;15.53;;;1.80;99.90;;;;;;5158783;28;20454;-49
2022/03/10 04:53:31;;;;;;;29.90;16.23;;;1.80;99.90;;;;;;5155054;28;20940;-50
2022/03/10 04:56:02;;;;;;;36.07;16.90;;;1.90;99.90;;;;;;5159781;28;20232;-50
2022/03/10 04:58:33;;;;;;;32.50;17.23;;;1.80;99.90;;;;;;5158892;28;20205;-49
2022/03/10 05:01:04;;;;;;;42.80;16.33;;;1.80;99.90;;;;;;5161277;28;20464;-50
2022/03/10 05:03:34;;;;;;;29.93;16.10;;;1.80;99.90;;;;;;5158663;28;20550;-49
2022/03/10 05:06:06;;;;;;;31.13;16.03;;;1.80;99.90;;;;;;5159257;28;20205;-50
2022/03/10 05:08:36;;;;;;;30.00;15.10;;;1.90;99.90;;;;;;5159639;28;20281;-48
2022/03/10 05:11:07;;;;;;;30.47;15.60;;;1.80;99.90;;;;;;5155450;28;20983;-50
2022/03/10 05:13:38;;;;;;;39.63;18.20;;;1.80;99.90;;;;;;5150938;28;20182;-49
2022/03/10 05:16:08;;;;;;;33.77;15.90;;;1.80;99.90;;;;;;5159225;28;20505;-51
2022/03/10 05:18:39;;;;;;;37.77;16.33;;;1.80;99.90;;;;;;5157843;28;20189;-50
2022/03/10 05:21:09;;;;;;;34.57;16.53;;;1.80;99.90;;;;;;5163567;28;20186;-50
2022/03/10 05:23:40;;;;;;;36.53;16.93;;;1.80;99.90;;;;;;5153824;28;20198;-49
2022/03/10 05:26:10;;;;;;;31.73;16.90;;;1.80;99.90;;;;;;5149380;28;20231;-49
2022/03/10 05:28:41;;;;;;;40.10;16.77;;;1.70;99.90;;;;;;5161893;28;20183;-50
2022/03/10 05:31:11;;;;;;;28.53;16.30;;;1.70;99.90;;;;;;5155893;28;20204;-50
2022/03/10 05:33:42;;;;;;;29.50;16.73;;;1.60;99.90;;;;;;5160429;28;20199;-51
2022/03/10 05:36:12;;;;;;;30.80;15.80;;;1.60;99.90;;;;;;5178022;22;20693;-48
2022/03/10 05:38:43;;;;;;;32.17;16.57;;;1.60;99.90;;;;;;5156024;28;20180;-48
2022/03/10 05:41:14;;;;;;;35.83;18.70;;;1.60;99.90;;;;;;5147839;28;20201;-46
2022/03/10 05:43:44;;;;;;;34.10;16.40;;;1.60;99.90;;;;;;5132722;28;20233;-46
2022/03/10 05:46:15;;;;;;;33.20;17.43;;;1.70;99.90;;;;;;5151836;28;20669;-46
2022/03/10 05:48:45;;;;;;;47.20;17.37;;;1.60;99.90;;;;;;5140696;28;20174;-47
2022/03/10 05:51:16;;;;;;;32.80;18.13;;;1.70;99.90;;;;;;5143238;28;20218;-47
2022/03/10 05:53:50;;;;;;;39.73;17.93;;;1.70;99.90;;;;;;5142854;28;20582;-48
2022/03/10 05:56:21;;;;;;;37.53;17.87;;;1.70;99.90;;;;;;5140452;28;20458;-46
2022/03/10 05:58:51;;;;;;;41.27;18.90;;;1.80;99.90;;;;;;5143109;28;20973;-48
2022/03/10 06:01:22;;;;;;;32.97;18.20;;;1.80;99.90;;;;;;5136620;28;20239;-48
2022/03/10 06:03:52;;;;;;;41.33;18.30;;;1.90;99.90;;;;;;5145042;28;20255;-47
2022/03/10 06:06:23;;;;;;;38.37;17.27;;;1.90;99.90;;;;;;5143983;28;20685;-47
2022/03/10 06:08:54;;;;;;;38.23;18.10;;;2.20;99.90;;;;;;5141471;28;20182;-47
2022/03/10 06:11:24;;;;;;;36.60;18.23;;;2.30;99.90;;;;;;5143574;28;20186;-46
2022/03/10 06:13:55;;;;;;;36.20;17.80;;;2.30;99.90;;;;;;5143589;28;20178;-47
2022/03/10 06:16:26;;;;;;;38.50;17.30;;;2.30;99.90;;;;;;5136079;28;20233;-48
2022/03/10 06:18:56;;;;;;;41.13;18.30;;;2.40;99.90;;;;;;5146719;28;20340;-47
2022/03/10 06:21:28;;;;;;;41.80;19.67;;;2.40;99.90;;;;;;5147648;28;20484;-47
2022/03/10 06:23:59;;;;;;;36.77;18.40;;;2.40;99.90;;;;;;5119935;28;20621;-48
2022/03/10 06:26:29;;;;;;;35.10;17.57;;;2.60;99.90;;;;;;5130090;28;20461;-48
2022/03/10 06:29:00;;;;;;;32.73;17.67;;;2.70;99.90;;;;;;5143002;28;20210;-48
2022/03/10 06:31:31;;;;;;;31.20;17.00;;;2.80;99.90;;;;;;5135651;28;20273;-46
2022/03/10 06:34:02;;;;;;;44.97;19.83;;;3.20;99.90;;;;;;5138419;28;20512;-47
2022/03/10 06:36:32;;;;;;;45.83;19.47;;;3.80;99.90;;;;;;5138520;28;20489;-48
2022/03/10 06:39:03;;;;;;;31.67;17.47;;;4.60;99.90;;;;;;5140505;28;20206;-46
2022/03/10 06:41:33;;;;;;;53.10;17.73;;;5.80;99.90;;;;;;5142292;28;20182;-48
2022/03/10 06:44:04;;;;;;;35.33;18.70;;;6.90;97.30;;;;;;5136108;28;20309;-47
2022/03/10 06:46:35;;;;;;;30.40;16.77;;;7.90;87.80;;;;;;5134900;28;20197;-48
2022/03/10 06:49:06;;;;;;;33.30;18.40;;;8.80;72.20;;;;;;5143022;28;20444;-48
2022/03/10 06:51:36;;;;;;;31.57;18.77;;;9.40;64.00;;;;;;5146878;28;20267;-47
2022/03/10 06:54:07;;;;;;;37.17;17.50;;;9.90;58.90;;;;;;5139407;28;20529;-48
2022/03/10 06:56:38;;;;;;;38.90;18.27;;;10.20;55.80;;;;;;5140560;28;20238;-48
2022/03/10 06:59:09;;;;;;;35.40;18.10;;;10.60;54.00;;;;;;5138964;28;20184;-48
2022/03/10 07:01:40;;;;;;;33.73;16.53;;;10.90;51.70;;;;;;5137986;28;20940;-47
2022/03/10 07:04:11;;;;;;;89.73;25.23;;;10.90;51.20;;;;;;5123140;28;20486;-48
2022/03/10 07:06:41;;;;;;;28.57;17.23;;;11.00;50.90;;;;;;5136519;28;20206;-48
2022/03/10 07:09:12;;;;;;;43.60;17.33;;;11.20;50.30;;;;;;5138079;28;20275;-47
2022/03/10 07:11:43;;;;;;;46.77;18.80;;;11.30;49.80;;;;;;5134784;28;20233;-46
2022/03/10 07:14:14;;;;;;;35.97;17.20;;;11.60;49.10;;;;;;5134073;28;20225;-48
2022/03/10 07:16:45;;;;;;;37.50;19.37;;;12.10;49.30;;;;;;5136411;28;20492;-48
2022/03/10 07:19:15;;;;;;;42.07;17.53;;;12.10;48.40;;;;;;5138735;28;20448;-49
2022/03/10 07:21:46;;;;;;;29.30;16.80;;;12.30;47.20;;;;;;5134218;28;20181;-47
2022/03/10 07:24:17;;;;;;;43.27;19.37;;;12.50;47.40;;;;;;5141226;28;20327;-47
2022/03/10 07:26:47;;;;;;;38.93;18.50;;;12.70;46.50;;;;;;5142250;28;20237;-48
2022/03/10 07:29:18;;;;;;;33.33;16.73;;;13.20;45.90;;;;;;5137426;28;20234;-50
2022/03/10 07:31:48;;;;;;;36.23;17.50;;;13.30;45.20;;;;;;5141379;28;20194;-48
2022/03/10 07:34:19;;;;;;;36.57;17.47;;;13.50;45.10;;;;;;5138195;28;20182;-48
2022/03/10 07:36:49;;;;;;;28.33;16.20;;;13.40;44.90;;;;;;5137664;28;20857;-47
2022/03/10 07:39:20;;;;;;;42.40;18.33;;;12.90;45.20;;;;;;5144789;28;20192;-46
2022/03/10 07:41:50;;;;;;;32.33;17.53;;;12.70;46.10;;;;;;5143285;28;20277;-47
2022/03/10 07:44:21;;;;;;;33.93;16.37;;;12.90;46.50;;;;;;5140283;28;20231;-48
2022/03/10 07:46:52;;;;;;;38.30;17.50;;;13.10;45.80;;;;;;5137421;28;20205;-48
2022/03/10 07:49:22;;;;;;;34.23;17.90;;;12.90;46.20;;;;;;5139866;28;20546;-48
2022/03/10 07:51:53;;;;;;;35.60;16.77;;;13.10;46.10;;;;;;5152432;28;20185;-51
2022/03/10 07:54:25;;;;;;;31.63;16.13;;;13.20;45.70;;;;;;5119925;28;20181;-50
2022/03/10 07:56:55;;;;;;;36.23;17.53;;;12.70;46.00;;;;;;5131683;28;20315;-48
2022/03/10 07:59:26;;;;;;;35.23;15.60;;;11.60;47.90;;;;;;5139058;28;20521;-50
2022/03/10 08:01:57;;;;;;;33.67;17.27;;;10.10;51.60;;;;;;5141811;28;20183;-47
2022/03/10 08:04:27;;;;;;;34.50;18.50;;;8.10;58.10;;;;;;5144701;28;20733;-47
2022/03/10 08:06:58;;;;;;;47.13;18.63;;;6.50;91.40;;;;;;5141044;28;20614;-49
2022/03/10 08:09:28;;;;;;;36.17;17.30;;;5.70;99.90;;;;;;5135349;28;20657;-48
2022/03/10 08:11:59;;;;;;;42.90;18.67;;;5.30;99.90;;;;;;5139633;28;20184;-48
2022/03/10 08:14:29;;;;;;;37.60;17.23;;;5.10;99.90;;;;;;5147421;28;20243;-47
2022/03/10 08:17:00;;;;;;;36.73;19.50;;;4.90;99.90;;;;;;5141243;28;20626;-48
2022/03/10 08:19:31;;;;;;;41.57;18.80;;;4.80;99.90;;;;;;5153014;28;20202;-47
2022/03/10 08:22:01;;;;;;;38.93;19.03;;;4.70;99.90;;;;;;5139766;28;20666;-48
2022/03/10 08:24:32;;;;;;;38.57;19.07;;;4.80;99.90;;;;;;5157379;28;20207;-48
2022/03/10 08:27:02;;;;;;;46.83;19.67;;;4.80;99.90;;;;;;5144065;28;20283;-47
2022/03/10 08:29:33;;;;;;;43.70;21.03;;;5.00;99.90;;;;;;5139492;28;20560;-48
2022/03/10 08:32:04;;;;;;;33.13;18.60;;;5.40;99.90;;;;;;5141763;28;20224;-48
2022/03/10 08:34:36;;;;;;;43.33;19.43;;;5.50;99.90;;;;;;5142762;28;20218;-48
2022/03/10 08:37:07;;;;;;;46.87;18.47;;;5.30;99.90;;;;;;5140946;28;20477;-48
2022/03/10 08:39:38;;;;;;;47.67;19.03;;;5.20;99.90;;;;;;5138318;28;20445;-48
2022/03/10 08:42:08;;;;;;;44.07;19.47;;;5.00;99.90;;;;;;5137742;28;20449;-48
2022/03/10 08:44:39;;;;;;;37.13;19.60;;;5.00;99.90;;;;;;5140711;28;20240;-49
2022/03/10 08:47:09;;;;;;;36.77;20.57;;;5.00;99.90;;;;;;5138520;28;20210;-47
2022/03/10 08:49:40;;;;;;;35.93;19.30;;;5.00;99.90;;;;;;5139992;28;20185;-47
2022/03/10 08:52:11;;;;;;;40.70;18.50;;;5.00;99.90;;;;;;5144010;28;20200;-47
2022/03/10 08:54:41;;;;;;;39.13;18.80;;;5.00;99.90;;;;;;5141480;28;20277;-48
2022/03/10 08:57:12;;;;;;;43.13;19.80;;;5.10;99.90;;;;;;5158430;28;21778;-47
2022/03/10 08:59:43;;;;;;;51.33;18.80;;;5.30;99.90;;;;;;5147100;28;20502;-48
2022/03/10 09:02:13;;;;;;;35.03;19.10;;;5.40;99.90;;;;;;5146435;28;20433;-47
2022/03/10 09:04:44;;;;;;;31.53;17.20;;;5.50;99.90;;;;;;5139812;28;20236;-47
2022/03/10 09:07:15;;;;;;;38.63;18.20;;;5.50;99.90;;;;;;5133618;28;20209;-49
2022/03/10 09:09:45;;;;;;;39.30;19.90;;;5.50;99.90;;;;;;5135806;28;20182;-48
2022/03/10 09:12:16;;;;;;;38.33;18.57;;;5.60;99.90;;;;;;5144778;28;20650;-48
2022/03/10 09:14:47;;;;;;;32.50;19.17;;;5.70;99.90;;;;;;5148195;28;20255;-48
2022/03/10 09:17:17;;;;;;;45.03;19.20;;;5.90;99.90;;;;;;5136412;28;20316;-48
2022/03/10 09:19:49;;;;;;;40.73;18.90;;;5.90;99.90;;;;;;5144310;28;20204;-49
2022/03/10 09:22:20;;;;;;;32.90;16.43;;;5.90;99.90;;;;;;5147626;28;20187;-48
2022/03/10 09:24:51;;;;;;;39.77;18.03;;;5.90;99.90;;;;;;5135675;28;20465;-47
2022/03/10 09:27:21;;;;;;;41.93;18.70;;;6.00;99.90;;;;;;5141621;28;20457;-49
2022/03/10 09:29:52;;;;;;;36.00;17.50;;;6.10;99.90;;;;;;5156371;28;20455;-47
2022/03/10 09:32:23;;;;;;;41.10;18.13;;;6.10;99.90;;;;;;5143807;28;20185;-48
2022/03/10 09:34:53;;;;;;;35.20;17.53;;;6.20;99.90;;;;;;5142216;28;20181;-49
2022/03/10 09:37:24;;;;;;;45.63;18.50;;;6.20;99.90;;;;;;5152616;28;20222;-47
2022/03/10 09:39:55;;;;;;;33.60;17.40;;;6.20;99.90;;;;;;5125271;28;20199;-47
2022/03/10 09:42:29;;;;;;;34.87;17.43;;;6.30;99.90;;;;;;5146946;28;20188;-47
2022/03/10 09:45:09;;;;;;;36.93;17.00;;;6.50;99.90;;;;;;5140173;28;20224;-47
2022/03/10 09:47:42;;;;;;;36.90;17.70;;;6.70;99.90;;;;;;5150761;28;20467;-49
2022/03/10 09:50:16;;;;;;;40.03;18.50;;;6.70;99.90;;;;;;5142923;28;20447;-50
2022/03/10 09:52:47;;;;;;;40.27;19.10;;;6.80;99.90;;;;;;5139570;28;20577;-47
2022/03/10 09:55:18;;;;;;;35.53;16.13;;;7.00;99.90;;;;;;5143252;28;20442;-49
2022/03/10 09:57:49;;;;;;;35.17;17.90;;;6.90;99.90;;;;;;5143834;28;20825;-47
2022/03/10 10:00:20;;;;;;;32.37;17.37;;;7.00;99.90;;;;;;5124260;28;20516;-47
2022/03/10 10:02:51;;;;;;;27.83;16.47;;;7.10;99.90;;;;;;5148325;28;20433;-48
2022/03/10 10:05:26;;;;;;;31.27;17.00;;;7.40;99.90;;;;;;5144597;28;20219;-48
2022/03/10 10:08:10;;;;;;;47.37;17.57;;;7.30;99.90;;;;;;5147547;28;20447;-49
2022/03/10 10:10:49;;;;;;;46.30;18.30;;;7.30;99.90;;;;;;5143404;28;20436;-48
2022/03/10 10:13:30;;;;;;;34.37;16.23;;;7.10;99.90;;;;;;5141235;28;20919;-50
2022/03/10 10:16:04;;;;;;;30.77;16.70;;;7.10;99.90;;;;;;5136995;28;20435;-50
2022/03/10 10:18:36;;;;;;;34.00;16.40;;;7.30;99.90;;;;;;5144341;28;20442;-48
2022/03/10 10:21:10;;;;;;;29.03;16.90;;;7.30;99.90;;;;;;5158537;28;20474;-47
2022/03/10 10:23:41;;;;;;;34.37;17.93;;;7.30;99.90;;;;;;5140824;28;20772;-47
2022/03/10 10:26:13;;;;;;;34.53;16.50;;;7.40;99.90;;;;;;5157245;28;20455;-48
2022/03/10 10:28:46;;;;;;;37.93;15.73;;;7.50;99.90;;;;;;5142934;28;20197;-48
2022/03/10 10:31:20;;;;;;;26.43;15.67;;;7.50;99.90;;;;;;5141643;28;20535;-48
2022/03/10 10:33:58;;;;;;;27.43;16.83;;;7.50;99.90;;;;;;5134991;28;20967;-47
2022/03/10 10:36:31;;;;;;;31.60;16.13;;;7.30;99.90;;;;;;5137771;28;20501;-48
2022/03/10 10:39:17;;;;;;;27.00;16.13;;;7.30;99.90;;;;;;5138278;28;20433;-49
2022/03/10 10:41:48;;;;;;;32.67;16.00;;;7.30;99.90;;;;;;5137524;28;20500;-48
2022/03/10 10:44:21;;;;;;;27.47;17.77;;;7.40;99.90;;;;;;5138052;28;21345;-47
2022/03/10 10:47:00;;;;;;;24.63;16.43;;;7.50;99.90;;;;;;5154077;28;20494;-47
2022/03/10 10:49:35;;;;;;;34.53;16.97;;;7.50;99.90;;;;;;5137237;28;20923;-49
2022/03/10 10:52:11;;;;;;;35.53;17.67;;;7.60;99.90;;;;;;5133430;28;20440;-48
2022/03/10 10:54:45;;;;;;;34.60;16.37;;;8.00;99.90;;;;;;5152807;28;21020;-48
2022/03/10 10:57:21;;;;;;;31.43;17.33;;;8.20;99.90;;;;;;5146864;28;20490;-47
2022/03/10 11:00:12;;;;;;;27.77;16.27;;;8.30;99.90;;;;;;5139975;28;20444;-49
2022/03/10 11:02:43;;;;;;;28.77;15.73;;;8.20;99.90;;;;;;5146552;28;20448;-49
2022/03/10 11:05:14;;;;;;;23.60;15.30;;;8.10;99.90;;;;;;5141503;28;20487;-48
2022/03/10 11:07:46;;;;;;;33.67;16.20;;;8.00;99.90;;;;;;5142693;28;20198;-49
2022/03/10 11:10:17;;;;;;;27.40;15.60;;;8.10;99.90;;;;;;5148120;28;20501;-49
2022/03/10 11:12:47;;;;;;;17.70;14.50;;;8.20;99.90;;;;;;5143385;28;20440;-47
2022/03/10 11:15:18;;;;;;;21.77;13.53;;;8.30;99.90;;;;;;5148365;28;20567;-47
2022/03/10 11:17:48;;;;;;;24.63;14.53;;;8.30;98.90;;;;;;5138266;28;20213;-48
2022/03/10 11:20:20;;;;;;;26.27;14.00;;;8.30;99.10;;;;;;5136739;28;20208;-49
2022/03/10 11:23:13;;;;;;;26.07;14.20;;;8.40;98.70;;;;;;5142218;28;20198;-49
2022/03/10 11:25:48;;;;;;;21.43;12.40;;;8.40;97.30;;;;;;5149930;28;20526;-50
2022/03/10 11:28:46;;;;;;;23.00;13.90;;;8.50;96.90;;;;;;5146021;28;20460;-47
2022/03/10 11:31:17;;;;;;;22.93;13.33;;;8.50;97.00;;;;;;5145130;28;20437;-49
2022/03/10 11:33:48;;;;;;;26.03;15.07;;;8.40;97.30;;;;;;5143554;28;20444;-48
2022/03/10 11:39:04;;;;;;;28.53;13.60;;;8.40;97.20;;;;;;5201937;28;20488;-50
2022/03/10 11:41:44;;;;;;;23.53;12.87;;;8.20;96.00;;;;;;5212955;28;20437;-50
2022/03/10 11:44:22;;;;;;;21.70;13.03;;;8.10;96.00;;;;;;5217382;28;20801;-50
2022/03/10 11:46:57;;;;;;;22.97;12.43;;;8.00;96.20;;;;;;5210703;28;20457;-51
2022/03/10 11:49:39;;;;;;;21.43;13.00;;;7.80;97.10;;;;;;5194464;28;20431;-50
2022/03/10 11:52:28;;;;;;;24.10;12.30;;;8.00;97.40;;;;;;5198044;28;20487;-53
2022/03/10 11:55:06;;;;;;;18.63;11.97;;;8.20;95.00;;;;;;5210056;28;20495;-50
2022/03/10 11:58:00;;;;;;;22.03;12.77;;;8.30;91.80;;;;;;5211213;28;20457;-52
2022/03/10 12:00:39;;;;;;;17.67;11.60;;;8.40;91.10;;;;;;5194385;28;20477;-51
2022/03/10 12:03:17;;;;;;;15.53;10.53;;;8.60;89.00;;;;;;5213254;28;21011;-50
2022/03/10 12:05:52;;;;;;;25.87;12.37;;;8.60;87.50;;;;;;5207777;28;20911;-52
2022/03/10 12:08:36;;;;;;;18.40;12.23;;;8.80;85.80;;;;;;5204287;28;20465;-51
2022/03/10 12:11:14;;;;;;;17.60;10.40;;;8.80;83.10;;;;;;5205535;28;20516;-52
2022/03/10 12:13:44;;;;;;;32.97;11.20;;;8.60;80.60;;;;;;5209459;28;20517;-50
2022/03/10 12:16:24;;;;;;;16.63;12.07;;;8.40;79.80;;;;;;5207007;28;21004;-52
2022/03/10 12:18:55;;;;;;;18.63;11.47;;;8.10;82.60;;;;;;5208397;28;20496;-51
2022/03/10 12:21:30;;;;;;;15.00;10.03;;;8.00;84.90;;;;;;5210598;28;20541;-51
2022/03/10 12:24:04;;;;;;;22.00;11.53;;;8.10;84.30;;;;;;5207999;28;20525;-50
2022/03/10 12:26:37;;;;;;;16.20;10.30;;;8.10;83.50;;;;;;5205387;28;20449;-49
2022/03/10 12:29:10;;;;;;;15.47;10.63;;;8.10;83.50;;;;;;5195684;28;20438;-52
2022/03/10 12:31:42;;;;;;;18.87;11.43;;;8.10;81.60;;;;;;5190060;28;20777;-52
2022/03/10 12:34:14;;;;;;;16.23;10.77;;;8.20;78.30;;;;;;5203017;28;20881;-50
2022/03/10 12:36:51;;;;;;;20.13;11.63;;;8.20;78.90;;;;;;5209748;28;20470;-51
2022/03/10 12:39:25;;;;;;;20.43;12.10;;;8.30;78.20;;;;;;5209877;28;20467;-53
2022/03/10 12:42:04;;;;;;;18.17;12.17;;;8.20;78.10;;;;;;5207775;28;20464;-51
2022/03/10 12:44:37;;;;;;;19.27;12.73;;;8.20;77.70;;;;;;5183914;28;20481;-53
2022/03/10 12:47:10;;;;;;;20.17;12.00;;;8.10;77.50;;;;;;5209069;28;20780;-49
2022/03/10 12:49:45;;;;;;;21.60;12.37;;;8.10;78.00;;;;;;5202849;28;20445;-54
2022/03/10 12:52:17;;;;;;;24.33;12.87;;;8.10;77.60;;;;;;5192347;28;20438;-51
2022/03/10 12:54:48;;;;;;;20.80;12.17;;;8.10;76.10;;;;;;5208123;28;20440;-49
2022/03/10 12:57:18;;;;;;;22.00;13.00;;;8.10;75.90;;;;;;5210914;28;20543;-50
2022/03/10 12:59:49;;;;;;;19.67;11.70;;;8.20;75.50;;;;;;5209223;28;20206;-52
2022/03/10 13:02:28;;;;;;;16.93;12.80;;;8.20;74.50;;;;;;5213446;28;20199;-51
2022/03/10 13:05:02;;;;;;;20.13;12.90;;;8.20;74.20;;;;;;5209276;28;20221;-52
2022/03/10 13:07:34;;;;;;;18.23;13.40;;;8.30;73.20;;;;;;5195643;28;20463;-52